Latest Weather Observations for Adelaide Airport

IDS60901

Issued at 10:31 pm CDT Thursday 18 October 2018 (issued every 10 minutes, with the page automatically refreshed every 10 minutes)

About weather observations | Map of Adelaide area stations | Latest observations for Adelaide area | Other Formats
Station Details ID: 023034 Name: ADELAIDE AIRPORT Lat: -34.95 Lon: 138.52 Height: 2.0 m
Data from the previous 72 hours. | See also: Recent months at Adelaide Airport
Date/Time
CDT
Temp
°C
App
Temp
°C
Dew
Point
°C
Rel
Hum
%
Delta-T
°C
Wind Press
QNH
hPa
Press
MSL
hPa
Rain since
9am
mm
Dir  Spd
km/h
Gust
km/h
Spd
kts
Gust
kts
18/10:00pm 14.0 12.4 8.6 70 2.7 E 7 13 4 7 1013.8 1013.8 0.0
18/09:30pm 14.7 12.6 8.3 65 3.2 E 9 11 5 6 1014.0 1014.0 0.0
18/09:00pm 15.2 13.6 8.9 66 3.2 ESE 7 9 4 5 1014.0 1014.0 0.0
18/08:30pm 15.9 13.4 8.2 60 3.9 E 11 13 6 7 1013.7 1013.7 0.0
18/08:00pm 17.1 14.5 7.6 53 4.8 E 11 13 6 7 1013.6 1013.6 0.0
18/07:30pm 17.7 16.0 9.9 60 4.1 E 9 9 5 5 1013.9 1013.9 0.0
18/07:00pm 19.0 18.6 8.4 50 5.5 CALM 0 0 0 0 1014.0 1014.0 0.0
18/06:30pm 20.0 19.3 8.5 47 6.0 ENE 2 7 1 4 1014.0 1014.0 0.0
18/06:00pm 20.8 19.4 7.3 41 6.9 NNE 4 9 2 5 1014.1 1014.1 0.0
18/05:30pm 20.2 17.8 5.3 37 7.3 SW 7 9 4 5 1014.4 1014.4 0.0
18/05:00pm 19.6 18.6 5.8 40 6.8 CALM 0 7 0 4 1014.4 1014.4 0.0
18/04:30pm 19.3 16.6 5.7 41 6.7 N 9 15 5 8 1014.7 1014.7 0.0
18/04:00pm 18.0 15.1 6.7 47 5.6 NW 11 17 6 9 1015.2 1015.2 0.0
18/03:30pm 17.2 14.6 9.5 60 4.0 W 13 19 7 10 1015.7 1015.7 0.0
18/03:00pm 16.2 14.5 9.7 65 3.4 WSW 9 17 5 9 1016.1 1016.1 0.0
18/02:30pm 15.2 12.5 9.1 67 3.1 WSW 13 19 7 10 1016.2 1016.2 0.0
18/02:00pm 14.9 12.7 9.2 68 2.9 W 11 17 6 9 1016.6 1016.6 0.0
18/01:30pm 15.0 13.2 9.4 69 2.9 NW 9 15 5 8 1016.8 1016.8 0.0
18/01:00pm 14.3 11.8 9.6 73 2.4 NW 13 15 7 8 1017.3 1017.3 0.0
18/12:30pm 13.6 10.6 9.3 75 2.2 NW 15 17 8 9 1017.6 1017.6 0.0
18/12:00pm 13.7 11.5 9.4 75 2.2 NW 11 17 6 9 1017.9 1017.9 0.0
18/11:30am 13.2 11.0 9.2 77 2.0 NW 11 15 6 8 1018.1 1018.1 0.0
18/11:00am 13.2 10.6 9.5 78 1.9 NW 13 17 7 9 1018.4 1018.4 0.0
18/10:47am 13.2 10.4 9.9 80 1.7 NW 15 19 8 10 1018.5 1018.5 0.0
18/10:30am 12.8 10.3 9.7 81 1.6 WNW 13 19 7 10 1018.6 1018.6 0.0
18/10:13am 12.9 10.5 10.2 84 1.4 WNW 13 17 7 9 1018.6 1018.6 0.0
18/10:00am 12.9 10.6 10.6 86 1.2 NW 13 15 7 8 1018.7 1018.7 0.0
18/09:54am 12.8 10.5 10.5 86 1.2 NW 13 17 7 9 1018.6 1018.6 0.0
18/09:30am 12.6 11.5 10.5 87 1.1 NW 7 11 4 6 1018.5 1018.5 0.0
18/09:00am 12.3 11.0 11.2 93 0.6 NNW 9 11 5 6 1018.5 1018.5 0.8
18/08:48am 12.2 11.1 10.7 90 0.8 NNW 7 9 4 5 1018.4 1018.4 0.8
18/08:30am 12.4 11.5 10.7 89 0.9 NW 6 7 3 4 1018.3 1018.3 0.8
18/08:00am 12.2 11.1 10.7 90 0.8 SSW 7 9 4 5 1017.9 1017.9 0.8
18/07:45am 12.1 10.6 10.6 90 0.8 SW 9 11 5 6 1017.7 1017.7 0.8
18/07:30am 12.1 10.5 10.1 87 1.0 SW 9 11 5 6 1017.6 1017.6 0.8
18/07:00am 11.8 10.3 10.4 91 0.7 SW 9 13 5 7 1017.3 1017.3 0.8
18/06:30am 12.0 11.8 10.6 91 0.7 SSE 2 6 1 3 1016.8 1016.8 0.8
18/06:00am 11.8 10.4 10.8 94 0.5 SSW 9 11 5 6 1016.5 1016.5 0.8
18/05:30am 11.8 9.9 10.6 92 0.6 SW 11 15 6 8 1016.4 1016.4 0.6
18/05:00am 12.0 10.1 10.6 91 0.7 WSW 11 15 6 8 1016.5 1016.5 0.6
18/04:41am 12.2 10.6 10.3 88 1.0 SW 9 15 5 8 1016.5 1016.5 0.4
18/04:30am 12.3 10.3 10.0 86 1.2 WSW 11 15 6 8 1016.5 1016.5 0.4
18/04:00am 12.3 9.7 9.3 82 1.5 SW 13 17 7 9 1016.4 1016.4 0.4
18/03:44am 12.5 9.6 9.5 82 1.5 SW 15 19 8 10 1016.3 1016.3 0.4
18/03:30am 12.5 10.3 9.3 81 1.6 SW 11 15 6 8 1016.4 1016.4 0.4
18/03:00am 12.6 9.6 9.4 81 1.6 WSW 15 19 8 10 1016.4 1016.4 0.4
18/02:30am 12.7 10.5 9.5 81 1.6 WSW 11 13 6 7 1016.6 1016.6 0.4
18/02:00am 12.8 9.9 9.7 81 1.6 SW 15 19 8 10 1016.8 1016.8 0.4
18/01:30am 13.0 10.3 10.5 85 1.3 SW 15 19 8 10 1017.1 1017.1 0.4
18/01:00am 12.9 9.5 10.4 85 1.3 SW 19 24 10 13 1017.3 1017.3 0.4
18/12:30am 12.6 10.5 11.1 91 0.8 SW 13 17 7 9 1017.6 1017.6 0.4
18/12:00am 13.0 10.6 11.3 89 0.9 SW 15 20 8 11 1017.6 1017.6 0.4
 
Date/Time
CDT
Temp
°C
App
Temp
°C
Dew
Point
°C
Rel
Hum
%
Delta-T
°C
Wind Press
QNH
hPa
Press
MSL
hPa
Rain since
9am
mm
Dir  Spd
km/h
Gust
km/h
Spd
kts
Gust
kts
17/11:49pm 13.1 10.3 11.4 89 0.9 SW 17 22 9 12 1017.6 1017.6 0.4
17/11:30pm 13.3 11.3 11.6 89 0.9 SSW 13 17 7 9 1017.8 1017.8 0.4
17/11:13pm 13.3 11.1 12.0 92 0.7 SSW 15 20 8 11 1017.9 1017.9 0.4
17/11:00pm 13.4 11.0 11.3 87 1.1 SSW 15 22 8 12 1018.0 1018.0 0.4
17/10:30pm 13.2 11.2 11.5 89 0.9 SSW 13 19 7 10 1018.2 1018.2 0.4
17/10:13pm 13.1 11.2 11.8 92 0.7 SW 13 17 7 9 1018.2 1018.2 0.4
17/10:00pm 13.1 11.6 12.0 93 0.6 SSW 11 15 6 8 1018.3 1018.3 0.4
17/09:43pm 13.4 11.1 11.9 91 0.8 SW 15 19 8 10 1018.3 1018.3 0.2
17/09:30pm 13.5 11.0 11.2 86 1.2 SW 15 17 8 9 1018.3 1018.3 0.2
17/09:00pm 13.5 10.7 11.2 86 1.2 SW 17 22 9 12 1018.3 1018.3 0.2
17/08:37pm 13.7 10.3 11.2 85 1.3 SW 20 26 11 14 1018.1 1018.1 0.2
17/08:30pm 13.9 10.5 11.1 83 1.5 WSW 20 28 11 15 1018.1 1018.1 0.2
17/08:00pm 13.8 9.5 10.7 81 1.6 WSW 24 28 13 15 1018.1 1018.1 0.2
17/07:30pm 13.5 9.2 10.8 84 1.4 SW 24 28 13 15 1017.9 1017.9 0.2
17/07:00pm 14.1 9.7 10.3 78 2.0 WSW 24 32 13 17 1017.7 1017.7 0.2
17/06:41pm 14.1 9.0 10.5 79 1.9 WSW 28 32 15 17 1017.7 1017.7 0.2
17/06:30pm 14.3 9.1 10.3 77 2.1 WSW 28 33 15 18 1017.7 1017.7 0.2
17/06:00pm 14.7 9.6 10.7 77 2.1 WSW 28 35 15 19 1017.4 1017.4 0.2
17/05:30pm 14.7 9.7 10.9 78 2.0 WSW 28 37 15 20 1017.3 1017.3 0.2
17/05:00pm 14.9 10.3 11.1 78 2.0 WSW 26 33 14 18 1017.4 1017.4 0.2
17/04:30pm 14.7 9.7 10.9 78 2.0 WSW 28 33 15 18 1017.5 1017.5 0.2
17/04:00pm 14.5 9.8 10.7 78 2.0 WSW 26 33 14 18 1017.6 1017.6 0.2
17/03:30pm 14.7 9.2 10.7 77 2.1 WSW 30 33 16 18 1017.8 1017.8 0.2
17/03:00pm 14.8 9.3 10.6 76 2.2 WSW 30 37 16 20 1017.9 1017.9 0.2
17/02:30pm 15.0 9.5 10.4 74 2.4 WSW 30 33 16 18 1018.2 1018.2 0.2
17/02:00pm 14.7 9.5 10.1 74 2.4 WSW 28 33 15 18 1018.4 1018.4 0.2
17/01:30pm 15.0 9.8 10.4 74 2.4 WSW 28 33 15 18 1018.5 1018.5 0.2
17/01:00pm 14.5 8.9 10.1 75 2.3 WSW 30 35 16 19 1018.6 1018.6 0.2
17/12:30pm 14.9 9.6 11.1 78 2.0 WSW 30 35 16 19 1018.7 1018.7 0.2
17/12:15pm 14.2 9.4 10.4 78 2.0 WSW 26 33 14 18 1018.9 1018.9 0.2
17/12:00pm 13.7 8.2 10.6 81 1.6 WSW 30 37 16 20 1019.0 1019.0 0.2
17/11:30am 13.6 9.4 11.1 85 1.3 WSW 24 32 13 17 1019.2 1019.2 0.2
17/11:00am 13.0 9.8 11.9 93 0.6 WSW 20 28 11 15 1019.4 1019.4 0.2
17/10:30am 13.0 9.0 11.9 93 0.6 WSW 24 32 13 17 1019.6 1019.6 0.2
17/10:19am 13.1 9.0 11.6 91 0.8 WSW 24 30 13 16 1019.5 1019.5 0.0
17/10:12am 13.2 9.1 11.5 89 0.9 WSW 24 30 13 16 1019.4 1019.4 0.0
17/10:00am 13.7 9.1 11.2 85 1.3 WSW 26 33 14 18 1019.4 1019.4 0.0
17/09:30am 12.9 8.8 11.4 91 0.8 WSW 24 33 13 18 1019.2 1019.2 0.0
17/09:25am 12.9 8.5 11.6 92 0.7 WSW 26 33 14 18 1019.2 1019.2 0.0
17/09:22am 13.0 8.9 11.3 89 0.9 WSW 24 33 13 18 1019.2 1019.2 0.0
17/09:14am 13.3 9.5 11.2 87 1.1 SW 22 32 12 17 1019.1 1019.1 0.0
17/09:00am 12.9 8.5 11.6 92 0.7 WSW 26 35 14 19 1018.9 1018.9 2.8
17/08:30am 13.0 8.5 11.3 89 0.9 SW 26 32 14 17 1018.6 1018.6 2.8
17/08:26am 13.2 8.9 10.9 86 1.2 SW 24 32 13 17 1018.6 1018.6 2.8
17/08:13am 13.2 9.0 11.1 87 1.1 SW 24 30 13 16 1018.5 1018.5 2.8
17/08:00am 13.3 9.0 10.6 84 1.4 SW 24 32 13 17 1018.3 1018.3 2.8
17/07:53am 13.2 9.3 10.9 86 1.2 SW 22 30 12 16 1018.3 1018.3 2.8
17/07:39am 13.2 9.7 10.9 86 1.2 WSW 20 28 11 15 1018.1 1018.1 2.8
17/07:30am 13.1 9.4 11.4 89 0.9 WSW 22 30 12 16 1018.0 1018.0 2.8
17/07:12am 12.9 8.5 11.6 92 0.7 WSW 26 32 14 17 1018.0 1018.0 2.8
17/07:00am 12.9 8.7 11.2 89 0.9 WSW 24 33 13 18 1017.9 1017.9 2.8
17/06:51am 13.3 9.6 11.4 88 1.0 SW 22 33 12 18 1017.7 1017.7 2.6
17/06:40am 13.4 9.6 11.1 86 1.2 WSW 22 32 12 17 1017.5 1017.5 2.6
17/06:38am 13.5 9.7 11.0 85 1.3 WSW 22 30 12 16 1017.5 1017.5 2.6
17/06:30am 13.4 8.8 10.9 85 1.3 WSW 26 35 14 19 1017.4 1017.4 2.6
17/06:00am 13.3 9.9 11.2 87 1.1 SW 20 28 11 15 1017.2 1017.2 2.6
17/05:30am 13.8 9.1 10.5 80 1.7 WSW 26 32 14 17 1017.0 1017.0 2.6
17/05:00am 13.8 9.1 10.5 80 1.7 WSW 26 33 14 18 1016.8 1016.8 2.6
17/04:30am 13.8 8.7 10.7 81 1.6 WSW 28 35 15 19 1016.9 1016.9 2.6
17/04:00am 13.8 8.8 10.9 83 1.5 WSW 28 35 15 19 1016.8 1016.8 2.6
17/03:30am 13.8 9.2 10.9 83 1.5 WSW 26 32 14 17 1016.8 1016.8 2.6
17/03:00am 13.6 9.0 10.9 84 1.4 WSW 26 32 14 17 1016.8 1016.8 2.6
17/02:30am 13.6 8.1 10.7 82 1.5 WSW 30 35 16 19 1016.7 1016.7 2.6
17/02:00am 13.5 8.5 11.0 85 1.3 WSW 28 35 15 19 1016.7 1016.7 2.6
17/01:30am 13.7 8.8 11.4 86 1.2 WSW 28 39 15 21 1017.0 1017.0 2.6
17/01:00am 13.9 8.6 11.1 83 1.5 WSW 30 39 16 21 1017.1 1017.1 2.6
17/12:30am 13.8 8.9 11.3 85 1.3 WSW 28 37 15 20 1017.3 1017.3 2.6
17/12:02am 13.7 9.7 11.8 88 1.0 SW 24 30 13 16 1017.4 1017.4 2.6
17/12:00am 13.5 9.4 11.4 87 1.1 SW 24 30 13 16 1017.4 1017.4 2.6
 
Date/Time
CDT
Temp
°C
App
Temp
°C
Dew
Point
°C
Rel
Hum
%
Delta-T
°C
Wind Press
QNH
hPa
Press
MSL
hPa
Rain since
9am
mm
Dir  Spd
km/h
Gust
km/h
Spd
kts
Gust
kts
16/11:41pm 13.4 9.1 11.9 91 0.8 WSW 26 35 14 19 1017.5 1017.5 2.4
16/11:30pm 13.5 9.4 11.6 88 1.0 SW 24 32 13 17 1017.5 1017.5 2.2
16/11:28pm 13.3 9.2 11.6 89 0.9 SW 24 33 13 18 1017.5 1017.5 2.2
16/11:00pm 13.2 8.9 11.9 92 0.7 WSW 26 33 14 18 1017.6 1017.6 2.0
16/10:56pm 13.2 8.1 11.9 92 0.7 WSW 30 37 16 20 1017.5 1017.5 2.0
16/10:41pm 13.8 8.3 11.9 88 1.0 WSW 32 37 17 20 1017.5 1017.5 2.0
16/10:30pm 13.8 8.6 11.7 87 1.1 W 30 35 16 19 1017.5 1017.5 2.0
16/10:00pm 13.9 8.3 11.5 85 1.3 W 32 39 17 21 1017.5 1017.5 2.0
16/09:47pm 14.2 9.1 11.8 85 1.3 WSW 30 39 16 21 1017.5 1017.5 2.0
16/09:30pm 14.2 9.0 11.6 84 1.4 WSW 30 37 16 20 1017.4 1017.4 2.0
16/09:00pm 14.4 8.7 11.2 81 1.7 WSW 32 41 17 22 1017.1 1017.1 2.0
16/08:30pm 14.3 8.8 11.9 85 1.3 W 32 43 17 23 1016.9 1016.9 2.0
16/08:00pm 14.3 9.2 11.9 85 1.3 WSW 30 37 16 20 1016.5 1016.5 2.0
16/07:30pm 13.8 8.3 11.7 87 1.1 W 32 41 17 22 1016.2 1016.2 2.0
16/07:00pm 14.2 8.5 11.8 85 1.3 W 33 44 18 24 1015.7 1015.7 2.0
16/06:30pm 14.5 8.8 11.7 83 1.5 W 33 41 18 22 1015.3 1015.3 2.0
16/06:06pm 14.5 8.9 11.5 82 1.6 W 32 50 17 27 1015.0 1015.0 2.0
16/06:00pm 14.5 8.9 11.5 82 1.6 WSW 32 48 17 26 1014.9 1014.9 2.0
16/05:30pm 14.8 8.6 11.4 80 1.8 W 35 48 19 26 1014.7 1014.7 2.0
16/05:00pm 15.1 9.6 11.8 81 1.8 W 32 46 17 25 1014.3 1014.3 2.0
16/04:30pm 14.9 8.2 11.1 78 2.0 W 37 54 20 29 1014.2 1014.2 2.0
16/04:00pm 15.5 10.0 11.8 78 2.0 W 32 41 17 22 1014.0 1014.0 2.0
16/03:30pm 15.1 9.2 11.2 77 2.1 W 33 46 18 25 1014.1 1014.1 2.0
16/03:16pm 14.8 9.2 12.0 83 1.5 W 33 46 18 25 1014.2 1014.2 2.0
16/03:00pm 14.6 8.6 12.2 85 1.3 W 35 48 19 26 1014.2 1014.2 2.0
16/02:47pm 15.0 10.8 13.4 90 0.9 W 28 35 15 19 1014.2 1014.2 2.0
16/02:30pm 14.4 8.7 13.1 92 0.7 W 35 44 19 24 1014.4 1014.4 2.0
16/02:21pm 14.6 8.8 12.6 88 1.1 W 35 48 19 26 1014.4 1014.4 2.0
16/02:00pm 14.0 8.5 12.5 91 0.8 W 33 43 18 23 1014.5 1014.5 2.0
16/01:39pm 14.9 10.7 13.5 91 0.8 W 28 35 15 19 1014.5 1014.5 1.8
16/01:30pm 14.5 9.9 13.4 93 0.6 W 30 43 16 23 1014.5 1014.5 1.8
16/01:22pm 14.8 9.6 13.4 91 0.8 W 33 43 18 23 1014.6 1014.6 1.8
16/01:15pm 15.0 10.8 13.6 91 0.8 W 28 37 15 20 1014.5 1014.5 1.8
16/01:00pm 14.2 10.3 13.3 94 0.5 WSW 26 35 14 19 1014.5 1014.5 1.8
16/12:55pm 14.1 10.5 13.2 94 0.5 W 24 32 13 17 1014.5 1014.5 1.8
16/12:48pm 14.2 10.3 13.3 94 0.5 W 26 33 14 18 1014.5 1014.5 1.6
16/12:39pm 14.2 10.3 13.3 94 0.5 W 26 35 14 19 1014.5 1014.5 1.6
16/12:30pm 14.0 9.7 13.1 94 0.5 W 28 41 15 22 1014.5 1014.5 1.6
16/12:18pm 14.4 10.6 13.5 94 0.5 W 26 33 14 18 1014.7 1014.7 1.0
16/12:00pm 14.1 9.3 12.8 92 0.7 W 30 37 16 20 1014.7 1014.7 0.8
16/11:50am 14.0 8.6 12.9 93 0.6 WNW 33 46 18 25 1014.7 1014.7 0.6
16/11:39am 14.0 9.2 12.9 93 0.6 W 30 41 16 22 1014.7 1014.7 0.4
16/11:30am 14.1 9.2 12.6 91 0.8 WNW 30 35 16 19 1014.6 1014.6 0.4
16/11:26am 14.2 9.3 12.7 91 0.8 WNW 30 37 16 20 1014.6 1014.6 0.4
16/11:00am 14.3 9.9 13.0 92 0.7 WNW 28 37 15 20 1014.5 1014.5 0.4
16/10:48am 14.5 10.2 12.1 85 1.3 WNW 26 33 14 18 1014.4 1014.4 0.2
16/10:39am 14.3 11.0 12.7 90 0.9 WNW 22 32 12 17 1014.3 1014.3 0.2
16/10:30am 14.3 10.7 13.0 92 0.7 WNW 24 33 13 18 1014.1 1014.1 0.2
16/10:00am 14.1 9.2 12.4 89 0.9 WNW 30 37 16 20 1013.9 1013.9 0.2
16/09:54am 14.5 9.5 12.1 85 1.3 WNW 30 37 16 20 1014.0 1014.0 0.0
16/09:30am 14.7 9.1 11.5 81 1.7 WNW 32 41 17 22 1013.8 1013.8 0.0
16/09:00am 14.6 9.1 11.8 83 1.5 WNW 32 39 17 21 1013.2 1013.2 0.2
16/08:30am 14.5 8.9 11.5 82 1.6 WNW 32 41 17 22 1013.0 1013.0 0.2
16/08:13am 14.6 8.5 11.6 82 1.6 WNW 35 46 19 25 1012.9 1012.9 0.2
16/08:00am 14.6 9.4 11.6 82 1.6 WNW 30 43 16 23 1012.6 1012.6 0.2
16/07:42am 14.5 9.0 11.7 83 1.5 W 32 39 17 21 1012.3 1012.3 0.2
16/07:30am 14.5 8.1 11.9 84 1.4 W 37 50 20 27 1012.1 1012.1 0.2
16/07:24am 14.4 8.8 12.0 85 1.3 WNW 33 50 18 27 1012.1 1012.1 0.2
16/07:20am 14.2 9.3 12.6 90 0.9 WNW 30 48 16 26 1012.0 1012.0 0.2
16/07:06am 14.4 9.1 12.6 89 1.0 WNW 32 46 17 25 1011.9 1011.9 0.2
16/07:00am 14.4 8.4 12.2 87 1.2 WNW 35 46 19 25 1011.7 1011.7 0.2
16/06:53am 14.7 9.0 11.9 83 1.5 WNW 33 43 18 23 1011.6 1011.6 0.2
16/06:38am 14.8 9.2 12.2 84 1.4 WNW 33 52 18 28 1011.3 1011.3 0.2
16/06:30am 14.7 8.3 11.9 83 1.5 WNW 37 52 20 28 1011.1 1011.1 0.2
16/06:00am 14.7 8.8 12.3 85 1.3 WNW 35 48 19 26 1010.7 1010.7 0.2
16/05:44am 14.5 9.2 12.5 88 1.1 WNW 32 44 17 24 1010.5 1010.5 0.2
16/05:30am 14.1 8.7 12.8 92 0.7 WNW 33 43 18 23 1010.4 1010.4 0.2
16/05:22am 14.4 8.9 12.6 89 1.0 WNW 33 41 18 22 1010.4 1010.4 0.2
16/05:10am 14.2 8.8 12.7 91 0.8 WNW 33 48 18 26 1010.2 1010.2 0.2
16/05:00am 14.4 9.3 13.1 92 0.7 WNW 32 41 17 22 1010.1 1010.1 0.2
16/04:43am 14.7 9.5 12.7 88 1.1 WNW 32 41 17 22 1009.8 1009.8 0.2
16/04:30am 14.4 9.2 12.9 91 0.8 WNW 32 41 17 22 1009.6 1009.6 0.2
16/04:23am 14.5 9.7 12.9 90 0.9 WNW 30 39 16 21 1009.5 1009.5 0.2
16/04:07am 14.5 9.1 12.7 89 1.0 WNW 33 52 18 28 1009.3 1009.3 0.2
16/04:00am 14.6 9.5 13.0 90 0.9 WNW 32 46 17 25 1009.3 1009.3 0.2
16/03:30am 14.6 9.5 13.0 90 0.9 WNW 32 43 17 23 1009.2 1009.2 0.2
16/03:02am 15.0 9.1 12.4 84 1.4 WNW 35 54 19 29 1008.8 1008.8 0.2
16/03:00am 15.0 8.8 12.6 85 1.3 WNW 37 54 20 29 1008.7 1008.7 0.2
16/02:34am 14.8 8.6 12.8 88 1.1 WNW 37 57 20 31 1008.4 1008.4 0.2
16/02:30am 15.1 9.3 12.7 85 1.3 WNW 35 52 19 28 1008.4 1008.4 0.2
16/02:00am 15.2 10.9 13.2 88 1.1 NW 28 39 15 21 1008.3 1008.3 0.2
16/01:54am 15.1 10.1 13.3 89 1.0 NW 32 50 17 27 1008.3 1008.3 0.2
16/01:44am 15.1 8.7 13.1 88 1.1 NW 39 50 21 27 1008.3 1008.3 0.2
16/01:30am 15.7 9.7 13.2 85 1.4 NNW 37 52 20 28 1008.2 1008.2 0.2
16/01:00am 16.0 10.8 12.9 82 1.7 NW 32 41 17 22 1008.5 1008.5 0.2
16/12:30am 16.2 11.2 13.5 84 1.5 NW 32 41 17 22 1008.7 1008.7 0.2
16/12:00am 16.9 12.2 13.3 79 2.0 NNW 30 41 16 22 1008.5 1008.5 0.2
 
Date/Time
CDT
Temp
°C
App
Temp
°C
Dew
Point
°C
Rel
Hum
%
Delta-T
°C
Wind Press
QNH
hPa
Press
MSL
hPa
Rain since
9am
mm
Dir  Spd
km/h
Gust
km/h
Spd
kts
Gust
kts
15/11:30pm 17.2 12.7 12.7 75 2.5 NW 28 37 15 20 1008.6 1008.6 0.2
15/11:00pm 17.5 14.1 11.4 67 3.3 NNW 20 26 11 14 1008.4 1008.4 0.2

Latest Capital City Observations: Canberra | Sydney | Melbourne | Brisbane | Adelaide | Perth | Hobart | Darwin

Other Formats:

Comma delimited format used in spreadsheet applications
http://www.bom.gov.au/fwo/IDS60901/IDS60901.94672.axf

JavaScript Object Notation format (JSON) in row-major order
http://www.bom.gov.au/fwo/IDS60901/IDS60901.94672.json